sensor_id;sensor_type;location;lat;lon;timestamp;temperature;humidity
30889;DHT22;51092;50.874;7.024;2023-10-09T00:00:25;14.90;99.90
30889;DHT22;51092;50.874;7.024;2023-10-09T00:01:52;14.90;99.90
30889;DHT22;51092;50.874;7.024;2023-10-09T00:02:54;15.00;99.90
30889;DHT22;51092;50.874;7.024;2023-10-09T00:03:59;15.00;99.90
30889;DHT22;51092;50.874;7.024;2023-10-09T00:05:04;15.00;99.90
30889;DHT22;51092;50.874;7.024;2023-10-09T00:06:15;15.00;99.90
30889;DHT22;51092;50.874;7.024;2023-10-09T00:07:18;15.00;99.90
30889;DHT22;51092;50.874;7.024;2023-10-09T00:08:24;15.00;99.90
30889;DHT22;51092;50.874;7.024;2023-10-09T00:09:31;14.90;99.90
30889;DHT22;51092;50.874;7.024;2023-10-09T00:10:34;14.90;99.90
30889;DHT22;51092;50.874;7.024;2023-10-09T00:11:50;14.90;99.90
30889;DHT22;51092;50.874;7.024;2023-10-09T00:12:59;14.90;99.90
30889;DHT22;51092;50.874;7.024;2023-10-09T00:14:00;15.00;99.90
30889;DHT22;51092;50.874;7.024;2023-10-09T00:15:07;15.00;99.90
30889;DHT22;51092;50.874;7.024;2023-10-09T00:16:10;15.10;99.90
30889;DHT22;51092;50.874;7.024;2023-10-09T00:17:16;15.10;99.90
30889;DHT22;51092;50.874;7.024;2023-10-09T00:18:21;15.10;99.90
30889;DHT22;51092;50.874;7.024;2023-10-09T00:19:30;15.10;99.90
30889;DHT22;51092;50.874;7.024;2023-10-09T00:20:36;15.00;99.90
30889;DHT22;51092;50.874;7.024;2023-10-09T00:21:40;15.00;99.90
30889;DHT22;51092;50.874;7.024;2023-10-09T00:22:43;14.90;99.90
30889;DHT22;51092;50.874;7.024;2023-10-09T00:23:47;15.00;99.90
30889;DHT22;51092;50.874;7.024;2023-10-09T00:24:56;14.90;99.90
30889;DHT22;51092;50.874;7.024;2023-10-09T00:26:11;14.90;99.90
30889;DHT22;51092;50.874;7.024;2023-10-09T00:27:17;14.90;99.90
30889;DHT22;51092;50.874;7.024;2023-10-09T00:28:22;14.90;99.90
30889;DHT22;51092;50.874;7.024;2023-10-09T00:29:24;14.90;99.90
30889;DHT22;51092;50.874;7.024;2023-10-09T00:30:29;14.90;99.90
30889;DHT22;51092;50.874;7.024;2023-10-09T00:31:32;14.90;99.90
30889;DHT22;51092;50.874;7.024;2023-10-09T00:32:35;14.90;99.90
30889;DHT22;51092;50.874;7.024;2023-10-09T00:33:38;14.90;99.90
30889;DHT22;51092;50.874;7.024;2023-10-09T00:34:40;14.90;99.90
30889;DHT22;51092;50.874;7.024;2023-10-09T00:35:42;14.90;99.90
30889;DHT22;51092;50.874;7.024;2023-10-09T00:36:55;14.90;99.90
30889;DHT22;51092;50.874;7.024;2023-10-09T00:38:05;14.90;99.90
30889;DHT22;51092;50.874;7.024;2023-10-09T00:39:15;14.90;99.90
30889;DHT22;51092;50.874;7.024;2023-10-09T00:40:30;14.90;99.90
30889;DHT22;51092;50.874;7.024;2023-10-09T00:41:33;14.90;99.90
30889;DHT22;51092;50.874;7.024;2023-10-09T00:42:36;14.90;99.90
30889;DHT22;51092;50.874;7.024;2023-10-09T00:43:41;14.90;99.90
30889;DHT22;51092;50.874;7.024;2023-10-09T00:44:44;14.90;99.90
30889;DHT22;51092;50.874;7.024;2023-10-09T00:45:49;14.90;99.90
30889;DHT22;51092;50.874;7.024;2023-10-09T00:46:52;14.90;99.90
30889;DHT22;51092;50.874;7.024;2023-10-09T00:47:55;14.90;99.90
30889;DHT22;51092;50.874;7.024;2023-10-09T00:49:00;14.90;99.90
30889;DHT22;51092;50.874;7.024;2023-10-09T00:50:06;14.90;99.90
30889;DHT22;51092;50.874;7.024;2023-10-09T00:51:11;14.90;99.90
30889;DHT22;51092;50.874;7.024;2023-10-09T00:52:17;14.90;99.90
30889;DHT22;51092;50.874;7.024;2023-10-09T00:53:28;14.90;99.90
30889;DHT22;51092;50.874;7.024;2023-10-09T00:54:32;14.90;99.90
30889;DHT22;51092;50.874;7.024;2023-10-09T00:55:42;14.90;99.90
30889;DHT22;51092;50.874;7.024;2023-10-09T00:56:46;14.90;99.90
30889;DHT22;51092;50.874;7.024;2023-10-09T00:57:59;14.80;99.90
30889;DHT22;51092;50.874;7.024;2023-10-09T00:59:02;14.80;99.90
30889;DHT22;51092;50.874;7.024;2023-10-09T01:00:10;14.80;99.90
30889;DHT22;51092;50.874;7.024;2023-10-09T01:01:33;14.80;99.90
30889;DHT22;51092;50.874;7.024;2023-10-09T01:02:38;14.70;99.90
30889;DHT22;51092;50.874;7.024;2023-10-09T01:03:43;14.70;99.90
30889;DHT22;51092;50.874;7.024;2023-10-09T01:04:46;14.70;99.90
30889;DHT22;51092;50.874;7.024;2023-10-09T01:05:49;14.60;99.90
30889;DHT22;51092;50.874;7.024;2023-10-09T01:06:58;14.60;99.90
30889;DHT22;51092;50.874;7.024;2023-10-09T01:08:09;14.60;99.90
30889;DHT22;51092;50.874;7.024;2023-10-09T01:09:26;14.50;99.90
30889;DHT22;51092;50.874;7.024;2023-10-09T01:10:29;14.60;99.90
30889;DHT22;51092;50.874;7.024;2023-10-09T01:11:36;14.50;99.90
30889;DHT22;51092;50.874;7.024;2023-10-09T01:12:48;14.50;99.90
30889;DHT22;51092;50.874;7.024;2023-10-09T01:13:56;14.50;99.90
30889;DHT22;51092;50.874;7.024;2023-10-09T01:15:14;14.40;99.90
30889;DHT22;51092;50.874;7.024;2023-10-09T01:16:36;14.40;99.90
30889;DHT22;51092;50.874;7.024;2023-10-09T01:17:39;14.40;99.90
30889;DHT22;51092;50.874;7.024;2023-10-09T01:18:47;14.40;99.90
30889;DHT22;51092;50.874;7.024;2023-10-09T01:19:50;14.40;99.90
30889;DHT22;51092;50.874;7.024;2023-10-09T01:20:57;14.40;99.90
30889;DHT22;51092;50.874;7.024;2023-10-09T01:22:00;14.40;99.90
30889;DHT22;51092;50.874;7.024;2023-10-09T01:23:08;14.30;99.90
30889;DHT22;51092;50.874;7.024;2023-10-09T01:24:10;14.20;99.90
30889;DHT22;51092;50.874;7.024;2023-10-09T01:25:13;14.20;99.90
30889;DHT22;51092;50.874;7.024;2023-10-09T01:26:14;14.20;99.90
30889;DHT22;51092;50.874;7.024;2023-10-09T01:27:16;14.30;99.90
30889;DHT22;51092;50.874;7.024;2023-10-09T01:28:18;14.20;99.90
30889;DHT22;51092;50.874;7.024;2023-10-09T01:29:21;14.20;99.90
30889;DHT22;51092;50.874;7.024;2023-10-09T01:30:24;14.20;99.90
30889;DHT22;51092;50.874;7.024;2023-10-09T01:31:25;14.20;99.90
30889;DHT22;51092;50.874;7.024;2023-10-09T01:32:27;14.30;99.90
30889;DHT22;51092;50.874;7.024;2023-10-09T01:33:30;14.40;99.90
30889;DHT22;51092;50.874;7.024;2023-10-09T01:34:36;14.30;99.90
30889;DHT22;51092;50.874;7.024;2023-10-09T01:35:44;14.40;99.90
30889;DHT22;51092;50.874;7.024;2023-10-09T01:36:48;14.40;99.90
30889;DHT22;51092;50.874;7.024;2023-10-09T01:37:51;14.40;99.90
30889;DHT22;51092;50.874;7.024;2023-10-09T01:38:54;14.30;99.90
30889;DHT22;51092;50.874;7.024;2023-10-09T01:39:58;14.40;99.90
30889;DHT22;51092;50.874;7.024;2023-10-09T01:41:00;14.40;99.90
30889;DHT22;51092;50.874;7.024;2023-10-09T01:42:08;14.40;99.90
30889;DHT22;51092;50.874;7.024;2023-10-09T01:43:10;14.40;99.90
30889;DHT22;51092;50.874;7.024;2023-10-09T01:44:13;14.30;99.90
30889;DHT22;51092;50.874;7.024;2023-10-09T01:45:17;14.40;99.90
30889;DHT22;51092;50.874;7.024;2023-10-09T01:46:29;14.40;99.90
30889;DHT22;51092;50.874;7.024;2023-10-09T01:47:34;14.30;99.90
30889;DHT22;51092;50.874;7.024;2023-10-09T01:48:39;14.40;99.90
30889;DHT22;51092;50.874;7.024;2023-10-09T01:49:41;14.30;99.90
30889;DHT22;51092;50.874;7.024;2023-10-09T01:50:45;14.30;99.90
30889;DHT22;51092;50.874;7.024;2023-10-09T01:51:49;14.30;99.90
30889;DHT22;51092;50.874;7.024;2023-10-09T01:52:52;14.30;99.90
30889;DHT22;51092;50.874;7.024;2023-10-09T01:53:55;14.30;99.90
30889;DHT22;51092;50.874;7.024;2023-10-09T01:54:58;14.30;99.90
30889;DHT22;51092;50.874;7.024;2023-10-09T01:56:11;14.30;99.90
30889;DHT22;51092;50.874;7.024;2023-10-09T01:57:16;14.30;99.90
30889;DHT22;51092;50.874;7.024;2023-10-09T01:58:23;14.30;99.90
30889;DHT22;51092;50.874;7.024;2023-10-09T01:59:33;14.30;99.90
30889;DHT22;51092;50.874;7.024;2023-10-09T02:00:39;14.30;99.90
30889;DHT22;51092;50.874;7.024;2023-10-09T02:01:49;14.30;99.90
30889;DHT22;51092;50.874;7.024;2023-10-09T02:02:50;14.30;99.90
30889;DHT22;51092;50.874;7.024;2023-10-09T02:03:53;14.30;99.90
30889;DHT22;51092;50.874;7.024;2023-10-09T02:04:57;14.30;99.90
30889;DHT22;51092;50.874;7.024;2023-10-09T02:06:09;14.30;99.90
30889;DHT22;51092;50.874;7.024;2023-10-09T02:07:27;14.30;99.90
30889;DHT22;51092;50.874;7.024;2023-10-09T02:08:31;14.40;99.90
30889;DHT22;51092;50.874;7.024;2023-10-09T02:09:38;14.30;99.90
30889;DHT22;51092;50.874;7.024;2023-10-09T02:10:47;14.30;99.90
30889;DHT22;51092;50.874;7.024;2023-10-09T02:11:49;14.30;99.90
30889;DHT22;51092;50.874;7.024;2023-10-09T02:12:53;14.30;99.90
30889;DHT22;51092;50.874;7.024;2023-10-09T02:13:58;14.30;99.90
30889;DHT22;51092;50.874;7.024;2023-10-09T02:15:02;14.20;99.90
30889;DHT22;51092;50.874;7.024;2023-10-09T02:16:16;14.30;99.90
30889;DHT22;51092;50.874;7.024;2023-10-09T02:17:29;14.30;99.90
30889;DHT22;51092;50.874;7.024;2023-10-09T02:18:35;14.30;99.90
30889;DHT22;51092;50.874;7.024;2023-10-09T02:19:40;14.30;99.90
30889;DHT22;51092;50.874;7.024;2023-10-09T02:20:44;14.30;99.90
30889;DHT22;51092;50.874;7.024;2023-10-09T02:21:46;14.30;99.90
30889;DHT22;51092;50.874;7.024;2023-10-09T02:22:48;14.30;99.90
30889;DHT22;51092;50.874;7.024;2023-10-09T02:23:54;14.30;99.90
30889;DHT22;51092;50.874;7.024;2023-10-09T02:24:59;14.30;99.90
30889;DHT22;51092;50.874;7.024;2023-10-09T02:26:06;14.30;99.90
30889;DHT22;51092;50.874;7.024;2023-10-09T02:27:09;14.30;99.90
30889;DHT22;51092;50.874;7.024;2023-10-09T02:28:12;14.30;99.90
30889;DHT22;51092;50.874;7.024;2023-10-09T02:29:19;14.30;99.90
30889;DHT22;51092;50.874;7.024;2023-10-09T02:30:25;14.30;99.90
30889;DHT22;51092;50.874;7.024;2023-10-09T02:31:30;14.30;99.90
30889;DHT22;51092;50.874;7.024;2023-10-09T02:32:36;14.30;99.90
30889;DHT22;51092;50.874;7.024;2023-10-09T02:33:38;14.40;99.90
30889;DHT22;51092;50.874;7.024;2023-10-09T02:34:41;14.30;99.90
30889;DHT22;51092;50.874;7.024;2023-10-09T02:35:47;14.30;99.90
30889;DHT22;51092;50.874;7.024;2023-10-09T02:36:52;14.40;99.90
30889;DHT22;51092;50.874;7.024;2023-10-09T02:37:58;14.30;99.90
30889;DHT22;51092;50.874;7.024;2023-10-09T02:39:00;14.40;99.90
30889;DHT22;51092;50.874;7.024;2023-10-09T02:40:05;14.40;99.90
30889;DHT22;51092;50.874;7.024;2023-10-09T02:41:09;14.40;99.90
30889;DHT22;51092;50.874;7.024;2023-10-09T02:42:23;14.40;99.90
30889;DHT22;51092;50.874;7.024;2023-10-09T02:43:28;14.30;99.90
30889;DHT22;51092;50.874;7.024;2023-10-09T02:44:35;14.40;99.90
30889;DHT22;51092;50.874;7.024;2023-10-09T02:45:41;14.40;99.90
30889;DHT22;51092;50.874;7.024;2023-10-09T02:46:51;14.40;99.90
30889;DHT22;51092;50.874;7.024;2023-10-09T02:47:52;14.40;99.90
30889;DHT22;51092;50.874;7.024;2023-10-09T02:48:57;14.40;99.90
30889;DHT22;51092;50.874;7.024;2023-10-09T02:49:58;14.50;99.90
30889;DHT22;51092;50.874;7.024;2023-10-09T02:51:07;14.40;99.90
30889;DHT22;51092;50.874;7.024;2023-10-09T02:52:16;14.40;99.90
30889;DHT22;51092;50.874;7.024;2023-10-09T02:53:25;14.40;99.90
30889;DHT22;51092;50.874;7.024;2023-10-09T02:54:30;14.50;99.90
30889;DHT22;51092;50.874;7.024;2023-10-09T02:55:38;14.40;99.90
30889;DHT22;51092;50.874;7.024;2023-10-09T02:56:40;14.50;99.90
30889;DHT22;51092;50.874;7.024;2023-10-09T02:57:44;14.50;99.90
30889;DHT22;51092;50.874;7.024;2023-10-09T02:58:46;14.50;99.90
30889;DHT22;51092;50.874;7.024;2023-10-09T02:59:49;14.50;99.90
30889;DHT22;51092;50.874;7.024;2023-10-09T03:00:52;14.40;99.90
30889;DHT22;51092;50.874;7.024;2023-10-09T03:01:55;14.40;99.90
30889;DHT22;51092;50.874;7.024;2023-10-09T03:02:56;14.40;99.90
30889;DHT22;51092;50.874;7.024;2023-10-09T03:03:59;14.40;99.90
30889;DHT22;51092;50.874;7.024;2023-10-09T03:05:03;14.40;99.90
30889;DHT22;51092;50.874;7.024;2023-10-09T03:06:07;14.40;99.90
30889;DHT22;51092;50.874;7.024;2023-10-09T03:07:12;14.40;99.90
30889;DHT22;51092;50.874;7.024;2023-10-09T03:08:15;14.40;99.90
30889;DHT22;51092;50.874;7.024;2023-10-09T03:09:17;14.40;99.90
30889;DHT22;51092;50.874;7.024;2023-10-09T03:10:27;14.40;99.90
30889;DHT22;51092;50.874;7.024;2023-10-09T03:11:30;14.30;99.90
30889;DHT22;51092;50.874;7.024;2023-10-09T03:12:33;14.40;99.90
30889;DHT22;51092;50.874;7.024;2023-10-09T03:13:35;14.40;99.90
30889;DHT22;51092;50.874;7.024;2023-10-09T03:14:40;14.40;99.90
30889;DHT22;51092;50.874;7.024;2023-10-09T03:15:42;14.40;99.90
30889;DHT22;51092;50.874;7.024;2023-10-09T03:16:45;14.40;99.90
30889;DHT22;51092;50.874;7.024;2023-10-09T03:17:49;14.40;99.90
30889;DHT22;51092;50.874;7.024;2023-10-09T03:18:52;14.40;99.90
30889;DHT22;51092;50.874;7.024;2023-10-09T03:19:54;14.40;99.90
30889;DHT22;51092;50.874;7.024;2023-10-09T03:20:56;14.40;99.90
30889;DHT22;51092;50.874;7.024;2023-10-09T03:21:58;14.40;99.90
30889;DHT22;51092;50.874;7.024;2023-10-09T03:23:00;14.50;99.90
30889;DHT22;51092;50.874;7.024;2023-10-09T03:24:02;14.40;99.90
30889;DHT22;51092;50.874;7.024;2023-10-09T03:25:06;14.40;99.90
30889;DHT22;51092;50.874;7.024;2023-10-09T03:26:12;14.50;99.90
30889;DHT22;51092;50.874;7.024;2023-10-09T03:27:16;14.60;99.90
30889;DHT22;51092;50.874;7.024;2023-10-09T03:28:17;14.60;99.90
30889;DHT22;51092;50.874;7.024;2023-10-09T03:29:20;14.60;99.90
30889;DHT22;51092;50.874;7.024;2023-10-09T03:30:21;14.50;99.90
30889;DHT22;51092;50.874;7.024;2023-10-09T03:31:24;14.40;99.90
30889;DHT22;51092;50.874;7.024;2023-10-09T03:32:28;14.40;99.90
30889;DHT22;51092;50.874;7.024;2023-10-09T03:33:30;14.40;99.90
30889;DHT22;51092;50.874;7.024;2023-10-09T03:34:34;14.30;99.90
30889;DHT22;51092;50.874;7.024;2023-10-09T03:35:37;14.30;99.90
30889;DHT22;51092;50.874;7.024;2023-10-09T03:36:40;14.30;99.90
30889;DHT22;51092;50.874;7.024;2023-10-09T03:37:42;14.30;99.90
30889;DHT22;51092;50.874;7.024;2023-10-09T03:38:44;14.30;99.90
30889;DHT22;51092;50.874;7.024;2023-10-09T03:39:46;14.30;99.90
30889;DHT22;51092;50.874;7.024;2023-10-09T03:40:49;14.30;99.90
30889;DHT22;51092;50.874;7.024;2023-10-09T03:41:51;14.40;99.90
30889;DHT22;51092;50.874;7.024;2023-10-09T03:42:56;14.40;99.90
30889;DHT22;51092;50.874;7.024;2023-10-09T03:43:59;14.40;99.90
30889;DHT22;51092;50.874;7.024;2023-10-09T03:45:05;14.40;99.90
30889;DHT22;51092;50.874;7.024;2023-10-09T03:46:14;14.40;99.90
30889;DHT22;51092;50.874;7.024;2023-10-09T03:47:22;14.40;99.90
30889;DHT22;51092;50.874;7.024;2023-10-09T03:48:23;14.40;99.90
30889;DHT22;51092;50.874;7.024;2023-10-09T03:49:28;14.40;99.90
30889;DHT22;51092;50.874;7.024;2023-10-09T03:50:30;14.30;99.90
30889;DHT22;51092;50.874;7.024;2023-10-09T03:51:38;14.30;99.90
30889;DHT22;51092;50.874;7.024;2023-10-09T03:52:40;14.30;99.90
30889;DHT22;51092;50.874;7.024;2023-10-09T03:53:43;14.30;99.90
30889;DHT22;51092;50.874;7.024;2023-10-09T03:54:44;14.30;99.90
30889;DHT22;51092;50.874;7.024;2023-10-09T03:55:47;14.20;99.90
30889;DHT22;51092;50.874;7.024;2023-10-09T03:56:49;14.20;99.90
30889;DHT22;51092;50.874;7.024;2023-10-09T03:57:52;14.20;99.90
30889;DHT22;51092;50.874;7.024;2023-10-09T03:58:55;14.20;99.90
30889;DHT22;51092;50.874;7.024;2023-10-09T03:59:57;14.20;99.90
30889;DHT22;51092;50.874;7.024;2023-10-09T04:00:59;14.30;99.90
30889;DHT22;51092;50.874;7.024;2023-10-09T04:02:01;14.20;99.90
30889;DHT22;51092;50.874;7.024;2023-10-09T04:03:05;14.20;99.90
30889;DHT22;51092;50.874;7.024;2023-10-09T04:04:08;14.20;99.90
30889;DHT22;51092;50.874;7.024;2023-10-09T04:05:11;14.20;99.90
30889;DHT22;51092;50.874;7.024;2023-10-09T04:06:14;14.20;99.90
30889;DHT22;51092;50.874;7.024;2023-10-09T04:07:18;14.20;99.90
30889;DHT22;51092;50.874;7.024;2023-10-09T04:08:22;14.20;99.90
30889;DHT22;51092;50.874;7.024;2023-10-09T04:09:31;14.30;99.90
30889;DHT22;51092;50.874;7.024;2023-10-09T04:10:40;14.30;99.90
30889;DHT22;51092;50.874;7.024;2023-10-09T04:11:49;14.30;99.90
30889;DHT22;51092;50.874;7.024;2023-10-09T04:12:59;14.30;99.90
30889;DHT22;51092;50.874;7.024;2023-10-09T04:14:02;14.30;99.90
30889;DHT22;51092;50.874;7.024;2023-10-09T04:15:11;14.30;99.90
30889;DHT22;51092;50.874;7.024;2023-10-09T04:16:16;14.20;99.90
30889;DHT22;51092;50.874;7.024;2023-10-09T04:17:33;14.20;99.90
30889;DHT22;51092;50.874;7.024;2023-10-09T04:18:35;14.20;99.90
30889;DHT22;51092;50.874;7.024;2023-10-09T04:19:39;14.30;99.90
30889;DHT22;51092;50.874;7.024;2023-10-09T04:20:48;14.30;99.90
30889;DHT22;51092;50.874;7.024;2023-10-09T04:22:06;14.30;99.90
30889;DHT22;51092;50.874;7.024;2023-10-09T04:23:09;14.30;99.90
30889;DHT22;51092;50.874;7.024;2023-10-09T04:24:16;14.30;99.90
30889;DHT22;51092;50.874;7.024;2023-10-09T04:25:25;14.30;99.90
30889;DHT22;51092;50.874;7.024;2023-10-09T04:26:27;14.30;99.90
30889;DHT22;51092;50.874;7.024;2023-10-09T04:27:30;14.30;99.90
30889;DHT22;51092;50.874;7.024;2023-10-09T04:28:37;14.30;99.90
30889;DHT22;51092;50.874;7.024;2023-10-09T04:29:40;14.30;99.90
30889;DHT22;51092;50.874;7.024;2023-10-09T04:30:48;14.40;99.90
30889;DHT22;51092;50.874;7.024;2023-10-09T04:31:55;14.40;99.90
30889;DHT22;51092;50.874;7.024;2023-10-09T04:32:58;14.40;99.90
30889;DHT22;51092;50.874;7.024;2023-10-09T04:34:10;14.40;99.90
30889;DHT22;51092;50.874;7.024;2023-10-09T04:35:30;14.40;99.90
30889;DHT22;51092;50.874;7.024;2023-10-09T04:36:32;14.40;99.90
30889;DHT22;51092;50.874;7.024;2023-10-09T04:37:47;14.40;99.90
30889;DHT22;51092;50.874;7.024;2023-10-09T04:38:53;14.40;99.90
30889;DHT22;51092;50.874;7.024;2023-10-09T04:40:17;14.50;99.90
30889;DHT22;51092;50.874;7.024;2023-10-09T04:41:42;14.50;99.90
30889;DHT22;51092;50.874;7.024;2023-10-09T04:43:15;14.40;99.90
30889;DHT22;51092;50.874;7.024;2023-10-09T04:44:21;14.40;99.90
30889;DHT22;51092;50.874;7.024;2023-10-09T04:45:26;14.40;99.90
30889;DHT22;51092;50.874;7.024;2023-10-09T04:46:43;14.40;99.90
30889;DHT22;51092;50.874;7.024;2023-10-09T04:47:45;14.40;99.90
30889;DHT22;51092;50.874;7.024;2023-10-09T04:48:59;14.40;99.90
30889;DHT22;51092;50.874;7.024;2023-10-09T04:50:18;14.40;99.90
30889;DHT22;51092;50.874;7.024;2023-10-09T04:51:46;14.40;99.90
30889;DHT22;51092;50.874;7.024;2023-10-09T04:53:03;14.40;99.90
30889;DHT22;51092;50.874;7.024;2023-10-09T04:54:23;14.40;99.90
30889;DHT22;51092;50.874;7.024;2023-10-09T04:55:40;14.40;99.90
30889;DHT22;51092;50.874;7.024;2023-10-09T04:56:44;14.50;99.90
30889;DHT22;51092;50.874;7.024;2023-10-09T04:57:55;14.50;99.90
30889;DHT22;51092;50.874;7.024;2023-10-09T04:59:09;14.50;99.90
30889;DHT22;51092;50.874;7.024;2023-10-09T05:00:19;14.50;99.90
30889;DHT22;51092;50.874;7.024;2023-10-09T05:01:38;14.60;99.90
30889;DHT22;51092;50.874;7.024;2023-10-09T05:02:45;14.60;99.90
30889;DHT22;51092;50.874;7.024;2023-10-09T05:03:55;14.60;99.90
30889;DHT22;51092;50.874;7.024;2023-10-09T05:05:05;14.60;99.90
30889;DHT22;51092;50.874;7.024;2023-10-09T05:06:17;14.60;99.90
30889;DHT22;51092;50.874;7.024;2023-10-09T05:07:22;14.60;99.90
30889;DHT22;51092;50.874;7.024;2023-10-09T05:08:48;14.70;99.90
30889;DHT22;51092;50.874;7.024;2023-10-09T05:09:50;14.70;99.90
30889;DHT22;51092;50.874;7.024;2023-10-09T05:10:59;14.70;99.90
30889;DHT22;51092;50.874;7.024;2023-10-09T05:12:16;14.70;99.90
30889;DHT22;51092;50.874;7.024;2023-10-09T05:13:19;14.70;99.90
30889;DHT22;51092;50.874;7.024;2023-10-09T05:14:40;14.70;99.90
30889;DHT22;51092;50.874;7.024;2023-10-09T05:15:46;14.70;99.90
30889;DHT22;51092;50.874;7.024;2023-10-09T05:16:54;14.70;99.90
30889;DHT22;51092;50.874;7.024;2023-10-09T05:17:55;14.70;99.90
30889;DHT22;51092;50.874;7.024;2023-10-09T05:18:57;14.80;99.90
30889;DHT22;51092;50.874;7.024;2023-10-09T05:20:00;14.70;99.90
30889;DHT22;51092;50.874;7.024;2023-10-09T05:21:20;14.70;99.90
30889;DHT22;51092;50.874;7.024;2023-10-09T05:22:39;14.70;99.90
30889;DHT22;51092;50.874;7.024;2023-10-09T05:23:40;14.70;99.90
30889;DHT22;51092;50.874;7.024;2023-10-09T05:24:45;14.80;99.90
30889;DHT22;51092;50.874;7.024;2023-10-09T05:25:48;14.90;99.90
30889;DHT22;51092;50.874;7.024;2023-10-09T05:26:56;14.90;99.90
30889;DHT22;51092;50.874;7.024;2023-10-09T05:28:18;14.90;99.90
30889;DHT22;51092;50.874;7.024;2023-10-09T05:29:26;15.00;99.90
30889;DHT22;51092;50.874;7.024;2023-10-09T05:30:36;15.00;99.90
30889;DHT22;51092;50.874;7.024;2023-10-09T05:31:42;15.10;99.90
30889;DHT22;51092;50.874;7.024;2023-10-09T05:32:58;15.20;99.90
30889;DHT22;51092;50.874;7.024;2023-10-09T05:34:00;15.20;99.90
30889;DHT22;51092;50.874;7.024;2023-10-09T05:35:02;15.30;99.90
30889;DHT22;51092;50.874;7.024;2023-10-09T05:36:16;15.40;99.90
30889;DHT22;51092;50.874;7.024;2023-10-09T05:37:33;15.40;99.90
30889;DHT22;51092;50.874;7.024;2023-10-09T05:38:35;15.60;99.90
30889;DHT22;51092;50.874;7.024;2023-10-09T05:39:45;15.60;99.90
30889;DHT22;51092;50.874;7.024;2023-10-09T05:41:09;15.70;99.90
30889;DHT22;51092;50.874;7.024;2023-10-09T05:42:25;15.70;99.90
30889;DHT22;51092;50.874;7.024;2023-10-09T05:43:30;15.80;99.90
30889;DHT22;51092;50.874;7.024;2023-10-09T05:44:50;16.10;99.90
30889;DHT22;51092;50.874;7.024;2023-10-09T05:46:13;16.20;99.90
30889;DHT22;51092;50.874;7.024;2023-10-09T05:47:19;16.40;99.90
30889;DHT22;51092;50.874;7.024;2023-10-09T05:48:34;16.40;99.90
30889;DHT22;51092;50.874;7.024;2023-10-09T05:49:50;16.70;99.90
30889;DHT22;51092;50.874;7.024;2023-10-09T05:51:23;16.80;99.90
30889;DHT22;51092;50.874;7.024;2023-10-09T05:52:43;17.00;99.90
30889;DHT22;51092;50.874;7.024;2023-10-09T05:54:06;17.00;99.90
30889;DHT22;51092;50.874;7.024;2023-10-09T05:55:25;17.00;99.90
30889;DHT22;51092;50.874;7.024;2023-10-09T05:56:45;17.10;99.90
30889;DHT22;51092;50.874;7.024;2023-10-09T05:58:05;17.10;99.90
30889;DHT22;51092;50.874;7.024;2023-10-09T05:59:25;17.20;99.90
30889;DHT22;51092;50.874;7.024;2023-10-09T06:00:45;17.30;99.90
30889;DHT22;51092;50.874;7.024;2023-10-09T06:02:05;17.30;99.90
30889;DHT22;51092;50.874;7.024;2023-10-09T06:03:53;17.40;99.90
30889;DHT22;51092;50.874;7.024;2023-10-09T06:05:06;17.40;99.90
30889;DHT22;51092;50.874;7.024;2023-10-09T06:06:28;17.40;99.90
30889;DHT22;51092;50.874;7.024;2023-10-09T06:07:43;17.40;99.90
30889;DHT22;51092;50.874;7.024;2023-10-09T06:09:06;17.40;99.90
30889;DHT22;51092;50.874;7.024;2023-10-09T06:10:26;17.40;99.90
30889;DHT22;51092;50.874;7.024;2023-10-09T06:11:40;17.40;99.90
30889;DHT22;51092;50.874;7.024;2023-10-09T06:12:43;17.30;99.90
30889;DHT22;51092;50.874;7.024;2023-10-09T06:13:59;17.30;99.90
30889;DHT22;51092;50.874;7.024;2023-10-09T06:15:05;17.30;99.90
30889;DHT22;51092;50.874;7.024;2023-10-09T06:16:52;17.30;99.90
30889;DHT22;51092;50.874;7.024;2023-10-09T06:18:18;17.20;99.90
30889;DHT22;51092;50.874;7.024;2023-10-09T06:19:37;17.10;99.90
30889;DHT22;51092;50.874;7.024;2023-10-09T06:20:44;17.10;99.90
30889;DHT22;51092;50.874;7.024;2023-10-09T06:22:00;17.00;99.90
30889;DHT22;51092;50.874;7.024;2023-10-09T06:23:20;17.00;99.90
30889;DHT22;51092;50.874;7.024;2023-10-09T06:24:42;17.00;99.90
30889;DHT22;51092;50.874;7.024;2023-10-09T06:25:55;17.00;99.90
30889;DHT22;51092;50.874;7.024;2023-10-09T06:27:07;17.00;99.90
30889;DHT22;51092;50.874;7.024;2023-10-09T06:28:25;17.00;99.90
30889;DHT22;51092;50.874;7.024;2023-10-09T06:29:34;17.00;99.90
30889;DHT22;51092;50.874;7.024;2023-10-09T06:30:36;17.10;99.90
30889;DHT22;51092;50.874;7.024;2023-10-09T06:31:47;17.00;99.90
30889;DHT22;51092;50.874;7.024;2023-10-09T06:33:21;17.10;99.90
30889;DHT22;51092;50.874;7.024;2023-10-09T06:34:30;17.20;99.90
30889;DHT22;51092;50.874;7.024;2023-10-09T06:35:37;17.20;99.90
30889;DHT22;51092;50.874;7.024;2023-10-09T06:36:40;17.20;99.90
30889;DHT22;51092;50.874;7.024;2023-10-09T06:37:53;17.20;99.90
30889;DHT22;51092;50.874;7.024;2023-10-09T06:39:13;17.20;99.90
30889;DHT22;51092;50.874;7.024;2023-10-09T06:40:34;17.20;99.90
30889;DHT22;51092;50.874;7.024;2023-10-09T06:41:55;17.20;99.90
30889;DHT22;51092;50.874;7.024;2023-10-09T06:43:10;17.30;99.90
30889;DHT22;51092;50.874;7.024;2023-10-09T06:44:18;17.40;99.90
30889;DHT22;51092;50.874;7.024;2023-10-09T06:45:41;17.50;99.90
30889;DHT22;51092;50.874;7.024;2023-10-09T06:46:45;17.60;99.90
30889;DHT22;51092;50.874;7.024;2023-10-09T06:47:48;17.60;99.90
30889;DHT22;51092;50.874;7.024;2023-10-09T06:49:09;17.70;99.90
30889;DHT22;51092;50.874;7.024;2023-10-09T06:50:34;17.70;99.90
30889;DHT22;51092;50.874;7.024;2023-10-09T06:51:52;17.50;99.90
30889;DHT22;51092;50.874;7.024;2023-10-09T06:52:56;17.50;99.90
30889;DHT22;51092;50.874;7.024;2023-10-09T06:53:59;17.50;99.90
30889;DHT22;51092;50.874;7.024;2023-10-09T06:55:06;17.40;99.90
30889;DHT22;51092;50.874;7.024;2023-10-09T06:56:20;17.50;99.90
30889;DHT22;51092;50.874;7.024;2023-10-09T06:57:30;17.40;99.90
30889;DHT22;51092;50.874;7.024;2023-10-09T06:58:45;17.40;99.90
30889;DHT22;51092;50.874;7.024;2023-10-09T06:59:49;17.20;99.90
30889;DHT22;51092;50.874;7.024;2023-10-09T07:01:09;17.00;99.90
30889;DHT22;51092;50.874;7.024;2023-10-09T07:02:40;16.90;99.90
30889;DHT22;51092;50.874;7.024;2023-10-09T07:03:47;16.80;99.90
30889;DHT22;51092;50.874;7.024;2023-10-09T07:04:57;16.70;99.90
30889;DHT22;51092;50.874;7.024;2023-10-09T07:06:11;16.70;99.90
30889;DHT22;51092;50.874;7.024;2023-10-09T07:07:26;16.70;99.90
30889;DHT22;51092;50.874;7.024;2023-10-09T07:08:27;16.80;99.90
30889;DHT22;51092;50.874;7.024;2023-10-09T07:09:38;16.80;99.90
30889;DHT22;51092;50.874;7.024;2023-10-09T07:10:43;16.80;99.90